Domov               UVHVVR             MKGP            O straneh              
ZDRAVSTVENO VARSTVO RASTLIN
  MREŽA AGROMET. POSTAJ
 ► PROGNOSTIČNA OBVESTILA
AGROMETEOROLOŠKI PODATKI -
ARSO
OBVLADOVANJE TVEGANJ ZARADI
NEUGODNIH VREMENSKIH RAZMER
  ► NARAVNE NESREČE
  ► SUŠA/MOČA
  ► NAMAKANJE
  ► ŽLED (gozdarstvo)
KARTOGRAFSKI PRIKAZI
SPLETNE POVEZAVE
PROJEKTI IN PUBLIKACIJE

AGROMETEOROLOŠKA MREŽA: VREMENSKE POSTAJE IN FENOLOŠKA OPAZOVANJA

Pregled podatkov za lokacijo Lendava, meteorološka postaja 42840

Pregled senzorjev na lokaciji

ID Ime Zadnja
vrednost
Datum
zadnje
spremembe
Tip
senzorja
2103 Omočenost lista (U) 1 U 19.7.2018 05:30 A730WET
2106 Padavine (mm) 0 mm 19.7.2018 05:30 Rain-O-Matic
2105 Relativna vlaga 2 m (% RH) 71,84 % RH 19.7.2018 05:30 50YA
2104 Temperatura 2 m (°C) 19,42 °C 19.7.2018 05:30 50YA

Pregled podatkov zadnjih 24 ur

Zap.
št.
Datum in čas Lendava
Omočenost
lista
Padavine Relativna
vlaga
2
m
Temperatura
2
m
1 19.7.2018 05:30
2 19.7.2018 05:00
3 19.7.2018 04:30 1 0 71,8 19,4
4 19.7.2018 04:00 1 0 70,6 19,7
5 19.7.2018 03:30 1 0 70,9 19,7
6 19.7.2018 03:00 1 0 70 19,8
7 19.7.2018 02:30 1 0 71 19,8
8 19.7.2018 02:00 1 0 71,1 19,9
9 19.7.2018 01:30 1 0 71,1 19,9
10 19.7.2018 01:00 1 0 71,3 20
11 19.7.2018 00:30 1 0 69,5 20,2
12 19.7.2018 00:00 1 0 69,5 20,2
13 18.7.2018 23:30 1 0 68,8 20,3
14 18.7.2018 23:00 1 0 69,6 20,2
15 18.7.2018 22:30 1 0 71,4 20
16 18.7.2018 22:00 1 0 72,2 20
17 18.7.2018 21:30 1 0 69,1 20,5
18 18.7.2018 21:00 1 0 65,1 21
19 18.7.2018 20:30 0 0 63,3 21,2
20 18.7.2018 20:00 0 0 61,6 21,5
21 18.7.2018 19:30 0 0 60,1 21,9
22 18.7.2018 19:00 0 0 58,3 22,3
23 18.7.2018 18:30 0 0 56 23,1
24 18.7.2018 18:00 0 0 52,3 24
25 18.7.2018 17:30 0 0 41,7 26,8
26 18.7.2018 17:00 0 0 31,2 29,3
27 18.7.2018 16:30 0 0 30 29,4
28 18.7.2018 16:00 0 0 30,1 29,5
29 18.7.2018 15:30 0 0 30,9 29,4
30 18.7.2018 15:00 0 0 29,2 29
31 18.7.2018 14:30 0 0 29,6 28,9
32 18.7.2018 14:00 0 0 32,3 28,6
33 18.7.2018 13:30 0 0 33,6 28,8
34 18.7.2018 13:00 0 0 35 28,7
35 18.7.2018 12:30 0 0 37,2 28
36 18.7.2018 12:00 0 0 37,2 27,8
37 18.7.2018 11:30 0 0 36,9 28
38 18.7.2018 11:00 0 0 37 27,5
39 18.7.2018 10:30 0 0 37,3 27
40 18.7.2018 10:00 0 0 40,1 26,6
41 18.7.2018 09:30 0 0 43,4 25,8
42 18.7.2018 09:00 0 0 46,3 24,7
43 18.7.2018 08:30 0 0 52 23,5
44 18.7.2018 08:00 0 0 55,6 22,3
45 18.7.2018 07:30 0 0 58,4 21,1
46 18.7.2018 07:00 0 0 63 19,8
47 18.7.2018 06:30 0 0 64 19
48 18.7.2018 06:00 0 0 63,6 18,4
© 2011 Ministrstvo za kmetijstvo, gozdarstvo in prehrano. Vse pravice pridržane.